createdAt,value
2022-08-22T04:04:34.272Z,14.59
2022-08-22T04:05:35.207Z,14.53
2022-08-22T04:06:35.252Z,14.52
2022-08-22T04:07:35.165Z,14.48
2022-08-22T04:08:35.155Z,14.45
2022-08-22T04:09:35.165Z,14.44
2022-08-22T04:10:35.132Z,14.39
2022-08-22T04:11:35.121Z,14.39
2022-08-22T04:12:35.112Z,14.39
2022-08-22T04:13:35.114Z,14.35
2022-08-22T04:14:35.087Z,14.34
2022-08-22T04:15:35.080Z,14.34
2022-08-22T04:16:35.094Z,14.38
2022-08-22T04:17:35.072Z,14.36
2022-08-22T04:18:35.041Z,14.35
2022-08-22T04:19:35.041Z,14.31
2022-08-22T04:20:35.026Z,14.30
2022-08-22T04:21:35.015Z,14.31
2022-08-22T04:22:35.011Z,14.34
2022-08-22T04:23:34.988Z,14.35
2022-08-22T04:24:35.002Z,14.35
2022-08-22T04:25:34.962Z,14.34
2022-08-22T04:26:34.967Z,14.30
2022-08-22T04:27:34.945Z,14.30
2022-08-22T04:28:34.943Z,14.29
2022-08-22T04:29:34.919Z,14.29
2022-08-22T04:30:34.929Z,14.27
2022-08-22T04:31:34.917Z,14.27
2022-08-22T04:32:34.898Z,14.26
2022-08-22T04:33:34.896Z,14.26
2022-08-22T04:34:34.930Z,14.24
2022-08-22T04:35:34.875Z,14.24
2022-08-22T04:36:34.855Z,14.21
2022-08-22T04:37:34.845Z,14.21
2022-08-22T04:38:34.818Z,14.21
2022-08-22T04:39:34.851Z,14.23
2022-08-22T04:40:34.796Z,14.23
2022-08-22T04:41:34.798Z,14.23
2022-08-22T04:42:34.803Z,14.24
2022-08-22T04:43:34.809Z,14.23
2022-08-22T04:44:34.797Z,14.23
2022-08-22T04:45:34.760Z,14.23
2022-08-22T04:46:37.255Z,14.23
2022-08-22T04:47:34.729Z,14.26
2022-08-22T04:48:34.736Z,14.27
2022-08-22T04:49:34.717Z,14.27
2022-08-22T04:50:34.693Z,14.29
2022-08-22T04:51:34.696Z,14.30
2022-08-22T04:52:34.684Z,14.29
2022-08-22T04:53:34.660Z,14.27
2022-08-22T04:54:34.645Z,14.29
2022-08-22T04:55:34.629Z,14.29
2022-08-22T04:56:34.629Z,14.30
2022-08-22T04:57:34.618Z,14.29
2022-08-22T04:58:34.606Z,14.24
2022-08-22T04:59:34.608Z,14.21
2022-08-22T05:00:34.577Z,14.24
2022-08-22T05:01:34.628Z,14.24
2022-08-22T05:02:34.562Z,14.23
2022-08-22T05:03:34.551Z,14.23
2022-08-22T05:04:34.542Z,14.21
2022-08-22T05:05:34.576Z,14.20
2022-08-22T05:06:34.519Z,14.21
2022-08-22T05:07:35.992Z,14.23
2022-08-22T05:08:34.486Z,14.21
2022-08-22T05:09:34.482Z,14.21
2022-08-22T05:10:34.484Z,14.21
2022-08-22T05:11:34.466Z,14.23
2022-08-22T05:12:34.450Z,14.26
2022-08-22T05:13:34.458Z,14.27
2022-08-22T05:14:34.417Z,14.29
2022-08-22T05:15:34.632Z,14.30
2022-08-22T05:16:34.404Z,14.30
2022-08-22T05:17:34.399Z,14.30
2022-08-22T05:18:34.389Z,14.35
2022-08-22T05:19:34.367Z,14.36
2022-08-22T05:20:34.369Z,14.36
2022-08-22T05:21:34.338Z,14.36
2022-08-22T05:22:34.336Z,14.39
2022-08-22T05:23:34.323Z,14.38
2022-08-22T05:24:34.333Z,14.39
2022-08-22T05:25:36.398Z,14.39
2022-08-22T05:26:34.292Z,14.42
2022-08-22T05:27:34.290Z,14.46
2022-08-22T05:28:34.279Z,14.49
2022-08-22T05:29:34.247Z,14.53
2022-08-22T05:30:34.315Z,14.56
2022-08-22T05:31:34.228Z,14.61
2022-08-22T05:32:34.218Z,14.63
2022-08-22T05:33:34.214Z,14.61
2022-08-22T05:34:34.205Z,14.61
2022-08-22T05:35:34.197Z,14.63
2022-08-22T05:36:34.221Z,14.64
2022-08-22T05:37:34.180Z,14.66
2022-08-22T05:38:34.201Z,14.67
2022-08-22T05:39:34.244Z,14.69
2022-08-22T05:40:34.149Z,14.72
2022-08-22T05:41:34.145Z,14.75
2022-08-22T05:42:34.147Z,14.79
2022-08-22T05:43:34.119Z,14.85
2022-08-22T05:44:34.093Z,14.85
2022-08-22T05:45:34.094Z,14.87
2022-08-22T05:46:34.072Z,14.91
2022-08-22T05:47:34.082Z,14.93
2022-08-22T05:48:34.083Z,14.95
2022-08-22T05:49:34.050Z,14.97
2022-08-22T05:50:34.058Z,14.98
2022-08-22T05:51:34.039Z,15.00
2022-08-22T05:52:34.005Z,15.03
2022-08-22T05:53:34.028Z,15.03
2022-08-22T05:54:34.617Z,15.04
2022-08-22T05:55:33.982Z,15.09
2022-08-22T05:56:34.177Z,15.09
2022-08-22T05:57:34.096Z,15.11
2022-08-22T05:58:34.586Z,15.13
2022-08-22T05:59:34.078Z,15.18
2022-08-22T06:00:33.909Z,15.20
2022-08-22T06:01:34.025Z,15.27
2022-08-22T06:02:34.435Z,15.30
2022-08-22T06:03:33.883Z,15.33
2022-08-22T06:04:33.874Z,15.37
2022-08-22T06:05:33.879Z,15.41
2022-08-22T06:06:33.842Z,15.44
2022-08-22T06:07:33.935Z,15.48
2022-08-22T06:08:33.859Z,15.52
2022-08-22T06:09:34.689Z,15.56
2022-08-22T06:10:34.029Z,15.60
2022-08-22T06:11:34.161Z,15.67
2022-08-22T06:12:34.109Z,15.71
2022-08-22T06:13:33.811Z,15.76
2022-08-22T06:14:33.757Z,15.80
2022-08-22T06:15:33.768Z,15.85
2022-08-22T06:16:33.762Z,15.89
2022-08-22T06:17:33.727Z,15.93
2022-08-22T06:18:33.719Z,15.96
2022-08-22T06:19:33.715Z,16.03
2022-08-22T06:20:33.731Z,16.04
2022-08-22T06:21:39.434Z,16.08
2022-08-22T06:22:33.678Z,16.11
2022-08-22T06:23:33.665Z,16.14
2022-08-22T06:24:33.662Z,16.17
2022-08-22T06:25:33.627Z,16.22
2022-08-22T06:26:33.616Z,16.26
2022-08-22T06:27:33.618Z,16.30
2022-08-22T06:28:33.607Z,16.33
2022-08-22T06:29:33.602Z,16.34
2022-08-22T06:30:33.583Z,16.37
2022-08-22T06:31:33.570Z,16.41
2022-08-22T06:32:58.990Z,16.44
2022-08-22T06:33:33.553Z,16.48
2022-08-22T06:34:33.578Z,16.52
2022-08-22T06:35:33.548Z,16.60
2022-08-22T06:36:33.579Z,16.67
2022-08-22T06:37:33.758Z,16.75
2022-08-22T06:38:34.299Z,16.80
2022-08-22T06:39:33.487Z,16.82
2022-08-22T06:40:33.461Z,16.85
2022-08-22T06:41:33.461Z,16.88
2022-08-22T06:42:33.460Z,16.92
2022-08-22T06:43:33.448Z,16.98
2022-08-22T06:44:33.450Z,17.02
2022-08-22T06:45:33.435Z,17.07
2022-08-22T06:46:33.400Z,17.10
2022-08-22T06:47:33.405Z,17.14
2022-08-22T06:48:33.372Z,17.14
2022-08-22T06:49:33.402Z,17.18
2022-08-22T06:50:33.363Z,17.24
2022-08-22T06:51:33.366Z,17.28
2022-08-22T06:52:33.343Z,17.33
2022-08-22T06:53:33.354Z,17.38
2022-08-22T06:54:34.476Z,17.42
2022-08-22T06:55:33.299Z,17.47
2022-08-22T06:56:33.296Z,17.53
2022-08-22T06:57:33.285Z,17.57
2022-08-22T06:58:34.131Z,17.62
2022-08-22T06:59:33.265Z,17.66
2022-08-22T07:00:33.245Z,17.71
2022-08-22T07:01:33.285Z,17.76
2022-08-22T07:02:33.245Z,17.76
2022-08-22T07:03:33.235Z,17.80
2022-08-22T07:04:33.211Z,17.84
2022-08-22T07:05:33.195Z,17.86
2022-08-22T07:06:33.199Z,17.89
2022-08-22T07:07:33.174Z,17.94
2022-08-22T07:08:37.169Z,17.98
2022-08-22T07:09:33.216Z,18.01
2022-08-22T07:10:33.126Z,18.05
2022-08-22T07:11:33.142Z,18.11
2022-08-22T07:12:33.320Z,18.16
2022-08-22T07:13:33.102Z,18.19
2022-08-22T07:14:33.130Z,18.23
2022-08-22T07:15:33.083Z,18.26
2022-08-22T07:16:33.061Z,18.32
2022-08-22T07:17:33.056Z,18.36
2022-08-22T07:18:33.037Z,18.42
2022-08-22T07:19:33.057Z,18.44
2022-08-22T07:20:33.024Z,18.47
2022-08-22T07:21:36.149Z,18.50
2022-08-22T07:22:32.992Z,18.53
2022-08-22T07:23:32.983Z,18.57
2022-08-22T07:24:32.984Z,18.64
2022-08-22T07:25:33.063Z,18.69
2022-08-22T07:26:33.003Z,18.75
2022-08-22T07:27:32.967Z,18.79
2022-08-22T07:28:37.225Z,18.86
2022-08-22T07:29:33.376Z,18.90
2022-08-22T07:30:32.959Z,18.96
2022-08-22T07:31:32.898Z,19.01
2022-08-22T07:32:32.925Z,19.09
2022-08-22T07:33:32.892Z,19.12
2022-08-22T07:34:33.086Z,19.16
2022-08-22T07:35:32.863Z,19.21
2022-08-22T07:36:32.871Z,19.25
2022-08-22T07:37:32.842Z,19.31
2022-08-22T07:38:32.818Z,19.39
2022-08-22T07:39:32.824Z,19.46
2022-08-22T07:40:32.875Z,19.50
2022-08-22T07:41:32.848Z,19.58
2022-08-22T07:42:32.779Z,19.64
2022-08-22T07:43:32.772Z,19.70
2022-08-22T07:44:32.800Z,19.78
2022-08-22T07:45:32.736Z,19.85
2022-08-22T07:46:32.747Z,19.92
2022-08-22T07:47:32.745Z,19.98
2022-08-22T07:48:32.717Z,20.02
2022-08-22T07:49:32.782Z,20.12
2022-08-22T07:50:32.697Z,20.17
2022-08-22T07:51:32.687Z,20.22
2022-08-22T07:52:32.745Z,20.23
2022-08-22T07:53:32.668Z,20.25
2022-08-22T07:54:32.645Z,20.27
2022-08-22T07:55:32.627Z,20.31
2022-08-22T07:56:32.641Z,20.37
2022-08-22T07:57:32.637Z,20.44
2022-08-22T07:58:32.600Z,20.46
2022-08-22T07:59:32.632Z,20.50
2022-08-22T08:00:32.574Z,20.54
2022-08-22T08:01:32.649Z,20.57
2022-08-22T08:02:32.633Z,20.61
2022-08-22T08:03:32.549Z,20.68
2022-08-22T08:04:35.803Z,20.75
2022-08-22T08:05:32.579Z,20.82
2022-08-22T08:06:32.549Z,20.91
2022-08-22T08:07:32.721Z,20.98
2022-08-22T08:08:33.273Z,21.05
2022-08-22T08:09:32.519Z,21.13
2022-08-22T08:10:32.528Z,21.21
2022-08-22T08:11:32.527Z,21.28
2022-08-22T08:12:32.457Z,21.38
2022-08-22T08:13:32.513Z,21.48
2022-08-22T08:14:32.544Z,21.53
2022-08-22T08:15:32.461Z,21.61
2022-08-22T08:16:32.405Z,21.68
2022-08-22T08:17:32.566Z,21.75
2022-08-22T08:18:32.390Z,21.83
2022-08-22T08:19:32.369Z,21.91
2022-08-22T08:20:32.415Z,22.05
2022-08-22T08:21:32.378Z,22.14
2022-08-22T08:22:32.401Z,22.26
2022-08-22T08:23:33.049Z,22.38
2022-08-22T08:24:39.975Z,22.49
2022-08-22T08:25:32.314Z,22.64
2022-08-22T08:26:32.567Z,22.78
2022-08-22T08:27:32.334Z,22.89
2022-08-22T08:28:32.284Z,22.99
2022-08-22T08:29:32.252Z,23.16
2022-08-22T08:30:32.323Z,23.35
2022-08-22T08:31:32.257Z,23.49
2022-08-22T08:32:32.287Z,23.49
2022-08-22T08:33:32.227Z,23.45
2022-08-22T08:34:32.274Z,23.45
2022-08-22T08:35:32.210Z,23.49
2022-08-22T08:36:32.190Z,23.63
2022-08-22T08:37:32.185Z,23.67
2022-08-22T08:38:32.185Z,23.75
2022-08-22T08:39:35.118Z,23.87
2022-08-22T08:40:32.144Z,23.94
2022-08-22T08:41:32.146Z,24.08
2022-08-22T08:42:32.853Z,24.16
2022-08-22T08:43:32.104Z,24.29
2022-08-22T08:44:32.330Z,24.42
2022-08-22T08:45:32.081Z,24.56
2022-08-22T08:46:32.116Z,24.74
2022-08-22T08:47:32.064Z,24.82
2022-08-22T08:48:32.036Z,24.97
2022-08-22T08:49:33.611Z,25.19
2022-08-22T08:50:32.049Z,25.38
2022-08-22T08:51:32.004Z,25.56
2022-08-22T08:52:32.020Z,25.67
2022-08-22T08:53:32.002Z,25.83
2022-08-22T08:54:31.999Z,25.98
2022-08-22T08:55:31.965Z,26.21
2022-08-22T08:56:32.010Z,26.36
2022-08-22T08:57:32.165Z,26.53
2022-08-22T08:58:31.934Z,26.69
2022-08-22T08:59:31.931Z,26.79
2022-08-22T09:00:32.830Z,26.69
2022-08-22T09:01:32.328Z,26.59
2022-08-22T09:02:33.888Z,26.59
2022-08-22T09:03:32.002Z,26.46
2022-08-22T09:04:31.942Z,26.23
2022-08-22T09:05:32.837Z,26.39
2022-08-22T09:06:31.859Z,26.81
2022-08-22T09:07:31.863Z,27.23
2022-08-22T09:08:31.850Z,27.78
2022-08-22T09:09:31.845Z,28.48
2022-08-22T09:10:31.802Z,28.79
2022-08-22T09:11:31.818Z,29.37
2022-08-22T09:12:31.799Z,29.92
2022-08-22T09:40:16.052Z,30.44
2022-08-22T09:40:30.183Z,39.53
2022-08-22T09:41:30.065Z,39.69
2022-08-22T09:42:30.058Z,39.62
2022-08-22T09:43:30.054Z,38.90
2022-08-22T09:44:30.093Z,38.53
2022-08-22T09:45:30.278Z,38.06
2022-08-22T09:46:36.565Z,38.03
2022-08-22T09:47:32.743Z,38.16
2022-08-22T09:48:30.002Z,37.16
2022-08-22T09:49:29.972Z,36.22
2022-08-22T09:50:30.004Z,35.50
2022-08-22T09:51:31.540Z,35.47
2022-08-22T09:52:33.167Z,35.17
2022-08-22T09:53:29.948Z,35.58
2022-08-22T09:54:31.425Z,35.77
2022-08-22T09:55:35.516Z,35.77
2022-08-22T09:56:29.924Z,36.33
2022-08-22T09:57:29.911Z,36.90
2022-08-22T09:58:29.928Z,37.40
2022-08-22T09:59:29.880Z,37.85
2022-08-22T10:00:29.873Z,38.45
2022-08-22T10:01:32.871Z,38.95
2022-08-22T10:02:30.080Z,39.34
2022-08-22T10:03:30.486Z,39.41
2022-08-22T10:04:29.862Z,39.85
2022-08-22T10:05:40.961Z,39.85
2022-08-22T10:06:29.835Z,38.97
2022-08-22T10:07:29.796Z,38.45
2022-08-22T10:08:29.814Z,37.96
2022-08-22T10:09:31.304Z,37.66
2022-08-22T10:10:29.872Z,37.21
2022-08-22T10:11:29.778Z,36.93
2022-08-22T10:12:35.159Z,36.53
2022-08-22T10:13:29.783Z,36.08
2022-08-22T10:14:29.773Z,35.92
2022-08-22T10:15:29.779Z,35.85
2022-08-22T10:16:29.726Z,35.85
2022-08-22T10:17:29.935Z,35.77
2022-08-22T10:18:29.721Z,35.71
2022-08-22T10:19:29.687Z,35.58
2022-08-22T10:20:29.680Z,35.37
2022-08-22T10:21:29.668Z,35.21
2022-08-22T10:22:30.199Z,35.00
2022-08-22T10:23:29.650Z,35.02
2022-08-22T10:24:29.671Z,35.05
2022-08-22T10:25:29.659Z,34.98
2022-08-22T10:26:29.632Z,34.83
2022-08-22T10:27:29.660Z,34.69
2022-08-22T10:28:29.623Z,34.40
2022-08-22T10:29:29.617Z,34.31
2022-08-22T10:30:29.601Z,34.46
2022-08-22T10:31:29.580Z,34.43
2022-08-22T10:32:29.583Z,34.27
2022-08-22T10:33:29.570Z,34.15
2022-08-22T10:34:29.545Z,34.19
2022-08-22T10:35:29.577Z,34.23
2022-08-22T10:36:29.518Z,34.24
2022-08-22T10:37:29.543Z,34.23
2022-08-22T10:38:29.511Z,34.16
2022-08-22T10:39:29.496Z,34.15
2022-08-22T10:40:29.509Z,34.19
2022-08-22T10:41:29.486Z,34.24
2022-08-22T10:42:30.155Z,34.37
2022-08-22T10:43:29.469Z,34.36
2022-08-22T10:44:29.495Z,34.26
2022-08-22T10:45:36.027Z,34.45
2022-08-22T10:46:29.466Z,34.65
2022-08-22T10:47:29.487Z,35.43
2022-08-22T10:48:29.427Z,35.81
2022-08-22T10:49:30.029Z,36.22
2022-08-22T10:50:31.179Z,36.21
2022-08-22T10:51:29.386Z,36.82
2022-08-22T10:52:29.426Z,37.16
2022-08-22T10:53:29.708Z,37.62
2022-08-22T10:54:29.413Z,37.05
2022-08-22T10:55:29.343Z,35.58
2022-08-22T10:56:29.345Z,35.15
2022-08-22T10:57:29.345Z,35.21
2022-08-22T10:58:29.389Z,35.24
2022-08-22T10:59:29.321Z,35.22
2022-08-22T11:00:29.312Z,34.84
2022-08-22T11:01:37.039Z,34.40
2022-08-22T11:02:29.286Z,34.45
2022-08-22T11:03:29.307Z,34.43
2022-08-22T11:04:29.272Z,34.45
2022-08-22T11:05:29.268Z,34.52
2022-08-22T11:06:29.235Z,33.89
2022-08-22T11:07:29.247Z,33.97
2022-08-22T11:08:29.253Z,34.12
2022-08-22T11:09:31.183Z,34.38
2022-08-22T11:10:29.274Z,35.03
2022-08-22T11:11:32.683Z,34.65
2022-08-22T11:12:34.686Z,34.75
2022-08-22T11:13:29.316Z,34.80
2022-08-22T11:14:29.176Z,35.18
2022-08-22T11:15:34.903Z,35.68
2022-08-22T11:16:29.162Z,36.30
2022-08-22T11:17:32.315Z,36.97
2022-08-22T11:18:30.504Z,37.99
2022-08-22T11:19:29.114Z,38.60
2022-08-22T11:20:29.108Z,39.65
2022-08-22T11:21:29.128Z,40.60
2022-08-22T11:22:29.070Z,41.41
2022-08-22T11:23:31.403Z,42.05
